createdAt,value
2023-03-15T00:00:16.364Z,987.12
2023-03-15T00:01:16.390Z,987.12
2023-03-15T00:02:16.424Z,987.12
2023-03-15T00:03:16.508Z,987.13
2023-03-15T00:04:16.358Z,987.12
2023-03-15T00:05:16.331Z,987.14
2023-03-15T00:06:16.341Z,987.13
2023-03-15T00:07:16.313Z,987.15
2023-03-15T00:08:16.331Z,987.15
2023-03-15T00:09:16.302Z,987.16
2023-03-15T00:10:16.993Z,987.17
2023-03-15T00:11:16.306Z,987.16
2023-03-15T00:12:16.286Z,987.12
2023-03-15T00:13:16.265Z,987.20
2023-03-15T00:14:16.244Z,987.24
2023-03-15T00:15:16.247Z,987.24
2023-03-15T00:16:16.273Z,987.25
2023-03-15T00:17:16.238Z,987.28
2023-03-15T00:18:16.240Z,987.33
2023-03-15T00:19:16.244Z,987.36
2023-03-15T00:20:16.210Z,987.35
2023-03-15T00:21:17.186Z,987.41
2023-03-15T00:22:16.202Z,987.39
2023-03-15T00:24:16.298Z,987.39
2023-03-15T00:25:16.298Z,987.34
2023-03-15T00:26:16.313Z,987.43
2023-03-15T00:27:17.371Z,987.42
2023-03-15T00:28:17.373Z,987.40
2023-03-15T00:29:17.378Z,987.44
2023-03-15T00:30:17.354Z,987.41
2023-03-15T00:31:17.427Z,987.42
2023-03-15T00:32:17.327Z,987.40
2023-03-15T00:33:17.335Z,987.39
2023-03-15T00:34:17.313Z,987.46
2023-03-15T00:35:17.308Z,987.46
2023-03-15T00:36:17.307Z,987.40
2023-03-15T00:37:17.725Z,987.42
2023-03-15T00:38:17.306Z,987.41
2023-03-15T00:39:17.313Z,987.42
2023-03-15T00:40:17.286Z,987.41
2023-03-15T00:41:17.261Z,987.42
2023-03-15T00:42:17.250Z,987.42
2023-03-15T00:43:17.290Z,987.38
2023-03-15T00:44:17.247Z,987.39
2023-03-15T00:45:17.247Z,987.44
2023-03-15T00:46:18.283Z,987.49
2023-03-15T00:47:17.240Z,987.48
2023-03-15T00:48:17.217Z,987.46
2023-03-15T00:49:18.133Z,987.48
2023-03-15T00:50:17.198Z,987.50
2023-03-15T00:51:17.177Z,987.49
2023-03-15T00:52:17.242Z,987.52
2023-03-15T00:53:17.152Z,987.53
2023-03-15T00:54:17.185Z,987.60
2023-03-15T00:55:17.142Z,987.66
2023-03-15T00:56:17.642Z,987.66
2023-03-15T00:57:17.134Z,987.66
2023-03-15T00:58:17.146Z,987.67
2023-03-15T00:59:17.124Z,987.68
2023-03-15T01:00:17.100Z,987.68
2023-03-15T01:01:17.157Z,987.66
2023-03-15T01:02:17.112Z,987.67
2023-03-15T01:03:17.164Z,987.73
2023-03-15T01:04:17.070Z,987.66
2023-03-15T01:05:17.075Z,987.68
2023-03-15T01:06:17.080Z,987.67
2023-03-15T01:07:17.729Z,987.64
2023-03-15T01:08:17.070Z,987.71
2023-03-15T01:09:17.070Z,987.69
2023-03-15T01:10:17.034Z,987.70
2023-03-15T01:11:17.012Z,987.69
2023-03-15T01:12:17.001Z,987.69
2023-03-15T01:13:17.016Z,987.71
2023-03-15T01:14:17.018Z,987.75
2023-03-15T01:15:16.981Z,987.70
2023-03-15T01:16:17.011Z,987.73
2023-03-15T01:17:16.966Z,987.75
2023-03-15T01:18:17.756Z,987.77
2023-03-15T01:19:16.974Z,987.78
2023-03-15T01:20:16.957Z,987.73
2023-03-15T01:21:16.963Z,987.71
2023-03-15T01:22:16.929Z,987.73
2023-03-15T01:23:17.921Z,987.70
2023-03-15T01:24:16.925Z,987.74
2023-03-15T01:25:16.899Z,987.74
2023-03-15T01:26:16.904Z,987.74
2023-03-15T01:27:16.882Z,987.76
2023-03-15T01:28:16.896Z,987.78
2023-03-15T01:29:16.887Z,987.75
2023-03-15T01:30:16.884Z,987.75
2023-03-15T01:31:16.888Z,987.77
2023-03-15T01:32:16.855Z,987.76
2023-03-15T01:33:16.852Z,987.83
2023-03-15T01:34:16.831Z,987.83
2023-03-15T01:35:16.836Z,987.80
2023-03-15T01:36:16.814Z,987.80
2023-03-15T01:37:16.813Z,987.80
2023-03-15T01:38:16.828Z,987.79
2023-03-15T01:39:16.797Z,987.84
2023-03-15T01:40:16.788Z,987.76
2023-03-15T01:41:16.779Z,987.87
2023-03-15T01:42:16.774Z,987.83
2023-03-15T01:43:16.808Z,987.89
2023-03-15T01:44:16.761Z,987.83
2023-03-15T01:45:16.741Z,987.78
2023-03-15T01:46:16.764Z,987.81
2023-03-15T01:47:16.722Z,987.80
2023-03-15T01:48:16.704Z,987.78
2023-03-15T01:49:16.742Z,987.83
2023-03-15T01:50:16.725Z,987.80
2023-03-15T01:51:16.730Z,987.84
2023-03-15T01:52:16.712Z,987.83
2023-03-15T01:53:17.680Z,987.79
2023-03-15T01:54:16.676Z,987.87
2023-03-15T01:55:16.724Z,987.87
2023-03-15T01:56:16.662Z,987.85
2023-03-15T01:57:16.661Z,987.86
2023-03-15T01:58:16.646Z,987.90
2023-03-15T01:59:16.670Z,987.94
2023-03-15T02:00:16.672Z,987.87
2023-03-15T02:01:16.660Z,987.90
2023-03-15T02:02:16.754Z,987.94
2023-03-15T02:03:16.627Z,987.90
2023-03-15T02:04:16.608Z,987.88
2023-03-15T02:05:16.580Z,987.93
2023-03-15T02:06:16.650Z,987.89
2023-03-15T02:07:16.585Z,987.91
2023-03-15T02:08:16.572Z,987.97
2023-03-15T02:09:16.565Z,987.97
2023-03-15T02:10:16.546Z,988.00
2023-03-15T02:11:16.557Z,988.10
2023-03-15T02:12:16.573Z,988.05
2023-03-15T02:13:16.531Z,988.08
2023-03-15T02:14:16.524Z,988.10
2023-03-15T02:15:16.513Z,988.08
2023-03-15T02:16:16.523Z,988.10
2023-03-15T02:17:16.534Z,988.09
2023-03-15T02:18:16.742Z,988.13
2023-03-15T02:19:16.497Z,988.19
2023-03-15T02:20:16.512Z,988.21
2023-03-15T02:21:16.460Z,988.19
2023-03-15T02:22:16.451Z,988.22
2023-03-15T02:23:16.442Z,988.21
2023-03-15T02:24:16.447Z,988.28
2023-03-15T02:25:16.438Z,988.29
2023-03-15T02:26:16.467Z,988.21
2023-03-15T02:27:16.463Z,988.20
2023-03-15T02:28:16.424Z,988.19
2023-03-15T02:29:16.410Z,988.27
2023-03-15T02:30:16.390Z,988.24
2023-03-15T02:31:16.413Z,988.28
2023-03-15T02:32:16.380Z,988.24
2023-03-15T02:33:16.396Z,988.20
2023-03-15T02:34:16.357Z,988.11
2023-03-15T02:35:16.392Z,988.15
2023-03-15T02:36:17.115Z,988.20
2023-03-15T02:37:17.250Z,988.13
2023-03-15T02:38:16.355Z,988.10
2023-03-15T02:39:16.366Z,988.08
2023-03-15T02:40:17.660Z,988.14
2023-03-15T02:41:16.292Z,988.19
2023-03-15T02:42:16.302Z,988.11
2023-03-15T02:43:16.296Z,988.14
2023-03-15T02:44:16.275Z,988.16
2023-03-15T02:45:16.271Z,988.16
2023-03-15T02:46:16.355Z,988.13
2023-03-15T02:47:16.264Z,988.14
2023-03-15T02:48:16.279Z,988.18
2023-03-15T02:49:16.245Z,988.10
2023-03-15T02:50:16.253Z,988.14
2023-03-15T02:51:16.240Z,988.22
2023-03-15T02:52:17.163Z,988.23
2023-03-15T02:53:16.230Z,988.27
2023-03-15T02:54:16.225Z,988.21
2023-03-15T02:55:16.249Z,988.21
2023-03-15T02:56:16.193Z,988.30
2023-03-15T02:57:16.217Z,988.22
2023-03-15T02:58:16.187Z,988.17
2023-03-15T02:59:17.163Z,988.19
2023-03-15T03:00:16.181Z,988.12
2023-03-15T03:01:16.222Z,988.11
2023-03-15T03:02:16.196Z,988.11
2023-03-15T03:03:16.191Z,988.22
2023-03-15T03:04:16.136Z,988.18
2023-03-15T03:05:16.122Z,988.15
2023-03-15T03:06:16.132Z,988.20
2023-03-15T03:07:16.110Z,988.24
2023-03-15T03:08:16.139Z,988.25
2023-03-15T03:09:16.249Z,988.15
2023-03-15T03:10:16.131Z,988.15
2023-03-15T03:11:16.115Z,988.23
2023-03-15T03:12:16.130Z,988.26
2023-03-15T03:13:16.078Z,988.27
2023-03-15T03:14:16.253Z,988.29
2023-03-15T03:15:16.667Z,988.27
2023-03-15T03:16:16.793Z,988.33
2023-03-15T03:17:16.067Z,988.37
2023-03-15T03:18:16.022Z,988.40
2023-03-15T03:19:16.067Z,988.44
2023-03-15T03:20:16.032Z,988.47
2023-03-15T03:21:16.007Z,988.50
2023-03-15T03:22:15.998Z,988.55
2023-03-15T03:23:15.984Z,988.56
2023-03-15T03:24:15.975Z,988.55
2023-03-15T03:25:16.984Z,988.52
2023-03-15T03:26:15.960Z,988.56
2023-03-15T03:27:15.951Z,988.53
2023-03-15T03:28:15.953Z,988.56
2023-03-15T03:29:15.951Z,988.62
2023-03-15T03:30:15.961Z,988.51
2023-03-15T03:31:16.017Z,988.49
2023-03-15T03:32:15.931Z,988.50
2023-03-15T03:33:15.908Z,988.49
2023-03-15T03:34:15.927Z,988.53
2023-03-15T03:35:16.270Z,988.54
2023-03-15T03:36:16.900Z,988.54
2023-03-15T03:37:15.890Z,988.57
2023-03-15T03:38:15.853Z,988.57
2023-03-15T03:39:15.877Z,988.60
2023-03-15T03:40:15.846Z,988.56
2023-03-15T03:41:15.844Z,988.60
2023-03-15T03:42:15.822Z,988.56
2023-03-15T03:43:15.814Z,988.62
2023-03-15T03:44:15.829Z,988.62
2023-03-15T03:45:16.769Z,988.72
2023-03-15T03:46:16.868Z,988.71
2023-03-15T03:47:15.810Z,988.71
2023-03-15T03:48:15.781Z,988.66
2023-03-15T03:49:15.770Z,988.75
2023-03-15T03:50:15.776Z,988.78
2023-03-15T03:51:15.764Z,988.83
2023-03-15T03:52:16.609Z,988.83
2023-03-15T03:53:15.764Z,988.85
2023-03-15T03:54:17.585Z,988.84
2023-03-15T03:55:16.735Z,988.90
2023-03-15T03:56:15.718Z,988.87
2023-03-15T03:57:16.653Z,988.82
2023-03-15T03:58:15.702Z,988.80
2023-03-15T03:59:15.732Z,988.82
2023-03-15T04:00:15.763Z,988.84
2023-03-15T04:01:15.734Z,988.84
2023-03-15T04:02:15.750Z,988.82
2023-03-15T04:03:15.658Z,988.78
2023-03-15T04:04:15.669Z,988.80
2023-03-15T04:05:15.640Z,988.82
2023-03-15T04:06:15.645Z,988.87
2023-03-15T04:07:17.091Z,988.82
2023-03-15T04:08:16.638Z,988.92
2023-03-15T04:09:15.659Z,988.97
2023-03-15T04:10:15.611Z,988.96
2023-03-15T04:11:16.177Z,988.97
2023-03-15T04:12:15.697Z,988.94
2023-03-15T04:13:15.580Z,988.92
2023-03-15T04:14:15.599Z,988.99
2023-03-15T04:15:15.592Z,988.90
2023-03-15T04:16:16.292Z,988.99
2023-03-15T04:17:15.539Z,988.95
2023-03-15T04:18:16.150Z,988.93
2023-03-15T04:19:16.164Z,988.94
2023-03-15T04:20:16.246Z,989.00
2023-03-15T04:21:15.523Z,989.01
2023-03-15T04:22:15.497Z,989.05
2023-03-15T04:23:15.495Z,989.02
2023-03-15T04:24:15.489Z,989.01
2023-03-15T04:25:15.479Z,989.02
2023-03-15T04:26:15.452Z,989.08
2023-03-15T04:27:15.468Z,989.10
2023-03-15T04:28:15.476Z,989.09
2023-03-15T04:29:15.508Z,989.12
2023-03-15T04:30:15.461Z,989.12
2023-03-15T04:31:15.482Z,989.11
2023-03-15T04:32:15.441Z,989.11
2023-03-15T04:33:15.433Z,989.15
2023-03-15T04:34:15.423Z,989.21
2023-03-15T04:35:15.399Z,989.23
2023-03-15T04:36:16.249Z,989.27
2023-03-15T04:37:15.375Z,989.28
2023-03-15T04:38:15.394Z,989.26
2023-03-15T04:39:15.367Z,989.29
2023-03-15T04:40:15.358Z,989.29
2023-03-15T04:41:15.372Z,989.25
2023-03-15T04:42:15.354Z,989.22
2023-03-15T04:43:15.356Z,989.25
2023-03-15T04:44:15.358Z,989.23
2023-03-15T04:45:15.326Z,989.29
2023-03-15T04:46:15.349Z,989.30
2023-03-15T04:47:15.304Z,989.35
2023-03-15T04:48:15.298Z,989.27
2023-03-15T04:49:15.319Z,989.37
2023-03-15T04:50:15.315Z,989.36
2023-03-15T04:51:15.297Z,989.36
2023-03-15T04:52:15.296Z,989.35
2023-03-15T04:53:15.267Z,989.42
2023-03-15T04:54:16.181Z,989.39
2023-03-15T04:55:15.252Z,989.39
2023-03-15T04:56:15.231Z,989.38
2023-03-15T04:57:16.186Z,989.41
2023-03-15T04:58:15.245Z,989.42
2023-03-15T04:59:15.263Z,989.46
2023-03-15T05:00:15.205Z,989.45
2023-03-15T05:01:15.259Z,989.46
2023-03-15T05:02:16.788Z,989.50
2023-03-15T05:03:15.185Z,989.54
2023-03-15T05:04:15.190Z,989.55
2023-03-15T05:05:15.196Z,989.55
2023-03-15T05:06:15.193Z,989.50
2023-03-15T05:07:15.179Z,989.58
2023-03-15T05:08:15.135Z,989.59
2023-03-15T05:09:15.124Z,989.61
2023-03-15T05:10:15.122Z,989.62
2023-03-15T05:11:15.124Z,989.66
2023-03-15T05:12:15.144Z,989.63
2023-03-15T05:13:15.132Z,989.60
2023-03-15T05:14:15.102Z,989.61
2023-03-15T05:15:15.127Z,989.69
2023-03-15T05:16:15.130Z,989.68
2023-03-15T05:17:15.077Z,989.69
2023-03-15T05:18:15.077Z,989.73
2023-03-15T05:19:15.760Z,989.76
2023-03-15T05:20:15.057Z,989.73
2023-03-15T05:21:15.046Z,989.73
2023-03-15T05:22:15.050Z,989.74
2023-03-15T05:23:15.058Z,989.78
2023-03-15T05:24:15.017Z,989.78
2023-03-15T05:25:15.000Z,989.74
2023-03-15T05:26:15.668Z,989.81
2023-03-15T05:27:14.980Z,989.80
2023-03-15T05:28:14.981Z,989.88
2023-03-15T05:29:15.970Z,989.84
2023-03-15T05:30:14.971Z,989.85
2023-03-15T05:31:14.951Z,989.87
2023-03-15T05:32:14.966Z,989.87
2023-03-15T05:33:14.973Z,989.87
2023-03-15T05:34:14.924Z,989.85
2023-03-15T05:35:15.939Z,989.90
2023-03-15T05:36:14.921Z,989.91
2023-03-15T05:37:14.913Z,990.00
2023-03-15T05:38:17.171Z,989.96
2023-03-15T05:39:14.900Z,989.94
2023-03-15T05:40:14.887Z,989.99
2023-03-15T05:41:14.891Z,989.99
2023-03-15T05:42:14.870Z,989.99
2023-03-15T05:43:14.870Z,990.00
2023-03-15T05:44:14.853Z,989.99
2023-03-15T05:45:14.851Z,990.04
2023-03-15T05:46:14.928Z,990.04
2023-03-15T05:47:14.852Z,990.01
2023-03-15T05:48:14.826Z,989.98
2023-03-15T05:49:14.839Z,990.02
2023-03-15T05:50:14.814Z,990.06
2023-03-15T05:51:14.811Z,990.06
2023-03-15T05:52:15.679Z,990.14
2023-03-15T05:53:14.808Z,990.08
2023-03-15T05:54:14.792Z,990.11
2023-03-15T05:55:14.777Z,990.12
2023-03-15T05:56:14.769Z,990.15
2023-03-15T05:57:14.758Z,990.11
2023-03-15T05:58:14.746Z,990.12
2023-03-15T05:59:14.736Z,990.19
2023-03-15T06:00:14.741Z,990.16
2023-03-15T06:01:14.725Z,990.16
2023-03-15T06:02:14.736Z,990.17
2023-03-15T06:03:14.796Z,990.21
2023-03-15T06:04:14.768Z,990.20
2023-03-15T06:05:14.712Z,990.18
2023-03-15T06:06:14.682Z,990.23
2023-03-15T06:07:14.684Z,990.21
2023-03-15T06:08:14.680Z,990.26
2023-03-15T06:09:14.672Z,990.22
2023-03-15T06:10:14.653Z,990.23
2023-03-15T06:11:14.638Z,990.20
2023-03-15T06:12:14.642Z,990.20
2023-03-15T06:13:16.620Z,990.19
2023-03-15T06:14:14.622Z,990.29
2023-03-15T06:15:14.610Z,990.22
2023-03-15T06:16:14.692Z,990.30
2023-03-15T06:17:14.604Z,990.23
2023-03-15T06:18:14.616Z,990.27
2023-03-15T06:19:14.613Z,990.29
2023-03-15T06:20:14.580Z,990.25
2023-03-15T06:21:14.574Z,990.27
2023-03-15T06:22:14.564Z,990.29
2023-03-15T06:23:14.584Z,990.29
2023-03-15T06:24:14.546Z,990.26
2023-03-15T06:25:16.185Z,990.30
2023-03-15T06:26:14.546Z,990.35
2023-03-15T06:27:14.725Z,990.36
2023-03-15T06:28:14.557Z,990.43
2023-03-15T06:29:14.507Z,990.45
2023-03-15T06:30:16.959Z,990.52
2023-03-15T06:31:15.546Z,990.47
2023-03-15T06:32:14.497Z,990.55
2023-03-15T06:33:14.512Z,990.56
2023-03-15T06:34:14.476Z,990.56
2023-03-15T06:35:14.480Z,990.63
2023-03-15T06:36:14.444Z,990.63
2023-03-15T06:37:16.280Z,990.63
2023-03-15T06:38:18.681Z,990.58
2023-03-15T06:39:14.460Z,990.69
2023-03-15T06:40:15.271Z,990.62
2023-03-15T06:41:14.419Z,990.62
2023-03-15T06:42:14.401Z,990.72
2023-03-15T06:43:14.393Z,990.71
2023-03-15T06:44:14.390Z,990.71
2023-03-15T06:45:14.400Z,990.79
2023-03-15T06:46:14.418Z,990.73
2023-03-15T06:47:14.388Z,990.87
2023-03-15T06:48:14.362Z,990.84
2023-03-15T06:49:14.383Z,990.86
2023-03-15T06:50:14.327Z,990.84
2023-03-15T06:51:14.338Z,990.87
2023-03-15T06:52:14.338Z,990.81
2023-03-15T06:53:15.144Z,990.83
2023-03-15T06:54:14.329Z,990.88
2023-03-15T06:55:14.298Z,990.86
2023-03-15T06:56:16.244Z,990.86
2023-03-15T06:57:14.289Z,990.92
2023-03-15T06:58:15.197Z,990.93
2023-03-15T06:59:14.504Z,990.98
2023-03-15T07:00:14.387Z,990.92
2023-03-15T07:01:14.805Z,990.93
2023-03-15T07:02:14.353Z,990.86
2023-03-15T07:03:15.139Z,990.87
2023-03-15T07:04:14.240Z,990.97
2023-03-15T07:05:14.254Z,990.90
2023-03-15T07:06:14.226Z,990.90
2023-03-15T07:07:14.222Z,990.97
2023-03-15T07:08:14.232Z,990.90
2023-03-15T07:09:14.216Z,990.92
2023-03-15T07:10:14.233Z,990.91
2023-03-15T07:11:14.398Z,990.99
2023-03-15T07:12:14.704Z,991.01
2023-03-15T07:13:14.173Z,990.99
2023-03-15T07:14:14.200Z,991.01
2023-03-15T07:15:16.103Z,991.08
2023-03-15T07:16:14.311Z,991.05
2023-03-15T07:17:14.128Z,991.02
2023-03-15T07:18:14.142Z,991.05
2023-03-15T07:19:14.114Z,991.12
2023-03-15T07:20:14.111Z,991.08
2023-03-15T07:21:14.113Z,991.11
2023-03-15T07:22:14.119Z,991.10
2023-03-15T07:23:14.104Z,991.07
2023-03-15T07:24:14.110Z,991.16
2023-03-15T07:25:14.083Z,991.12
2023-03-15T07:26:14.056Z,991.13
2023-03-15T07:27:16.073Z,991.16
2023-03-15T07:28:15.050Z,991.18
2023-03-15T07:29:14.305Z,991.13
2023-03-15T07:30:14.090Z,991.00
2023-03-15T07:31:14.711Z,991.11
2023-03-15T07:32:14.070Z,991.07
2023-03-15T07:33:14.045Z,991.11
2023-03-15T07:34:13.997Z,991.10
2023-03-15T07:35:13.981Z,991.09
2023-03-15T07:36:14.009Z,991.14
2023-03-15T07:37:14.010Z,991.16
2023-03-15T07:38:13.954Z,991.17
2023-03-15T07:39:15.686Z,991.18
2023-03-15T07:40:14.687Z,991.22
2023-03-15T07:41:13.933Z,991.20
2023-03-15T07:42:13.938Z,991.24
2023-03-15T07:43:13.945Z,991.27
2023-03-15T07:44:13.959Z,991.25
2023-03-15T07:45:13.957Z,991.29
2023-03-15T07:46:13.928Z,991.28
2023-03-15T07:47:13.884Z,991.28
2023-03-15T07:48:13.880Z,991.31
2023-03-15T07:49:13.847Z,991.32
2023-03-15T07:50:16.925Z,991.31
2023-03-15T07:51:14.861Z,991.31
2023-03-15T07:52:13.894Z,991.27
2023-03-15T07:53:13.848Z,991.31
2023-03-15T07:54:13.842Z,991.35
2023-03-15T07:55:13.841Z,991.37
2023-03-15T07:56:13.820Z,991.36
2023-03-15T07:57:13.834Z,991.39
2023-03-15T07:58:13.815Z,991.43
2023-03-15T07:59:14.705Z,991.44
2023-03-15T08:00:13.763Z,991.39
2023-03-15T08:01:13.798Z,991.45
2023-03-15T08:02:14.751Z,991.46
2023-03-15T08:03:13.895Z,991.48
2023-03-15T08:04:13.749Z,991.47
2023-03-15T08:05:13.764Z,991.46
2023-03-15T08:06:13.751Z,991.51
2023-03-15T08:07:14.694Z,991.44
2023-03-15T08:08:13.714Z,991.49
2023-03-15T08:09:13.682Z,991.49
2023-03-15T08:10:13.687Z,991.52
2023-03-15T08:11:13.827Z,991.50
2023-03-15T08:12:13.701Z,991.46
2023-03-15T08:13:13.730Z,991.50
2023-03-15T08:14:13.671Z,991.52
2023-03-15T08:15:13.667Z,991.47
2023-03-15T08:16:13.728Z,991.47
2023-03-15T08:17:14.191Z,991.50
2023-03-15T08:18:13.631Z,991.51
2023-03-15T08:19:14.288Z,991.52
2023-03-15T08:20:13.634Z,991.57
2023-03-15T08:21:13.610Z,991.51
2023-03-15T08:22:13.619Z,991.52
2023-03-15T08:23:14.215Z,991.53
2023-03-15T08:24:13.616Z,991.53
2023-03-15T08:25:13.576Z,991.55
2023-03-15T08:26:13.613Z,991.57
2023-03-15T08:27:13.552Z,991.58
2023-03-15T08:28:13.546Z,991.60
2023-03-15T08:29:13.544Z,991.59
2023-03-15T08:30:13.548Z,991.58
2023-03-15T08:31:13.563Z,991.62
2023-03-15T08:32:13.530Z,991.59
2023-03-15T08:33:13.512Z,991.59
2023-03-15T08:34:13.525Z,991.57
2023-03-15T08:35:15.792Z,991.58
2023-03-15T08:36:14.546Z,991.62
2023-03-15T08:37:13.463Z,991.60
2023-03-15T08:38:13.479Z,991.68
2023-03-15T08:39:13.489Z,991.72
2023-03-15T08:40:13.479Z,991.74
2023-03-15T08:41:13.475Z,991.74
2023-03-15T08:42:13.519Z,991.81
2023-03-15T08:43:13.443Z,991.79
2023-03-15T08:44:13.430Z,991.86
2023-03-15T08:45:14.209Z,991.86
2023-03-15T08:46:13.430Z,991.87
2023-03-15T08:47:13.403Z,991.91
2023-03-15T08:48:13.404Z,991.96
2023-03-15T08:49:14.191Z,992.01
2023-03-15T08:50:13.416Z,991.97
2023-03-15T08:51:13.385Z,992.03
2023-03-15T08:52:13.356Z,992.07
2023-03-15T08:53:13.350Z,992.09
2023-03-15T08:54:13.361Z,992.10
2023-03-15T08:55:13.796Z,992.15
2023-03-15T08:56:13.322Z,992.11
2023-03-15T08:57:13.324Z,992.19
2023-03-15T08:58:13.324Z,992.14
2023-03-15T08:59:19.403Z,992.20
2023-03-15T09:00:15.328Z,992.22
2023-03-15T09:01:13.300Z,992.25
2023-03-15T09:02:13.881Z,992.18
2023-03-15T09:03:13.280Z,992.25
2023-03-15T09:04:13.323Z,992.25
2023-03-15T09:05:13.275Z,992.30
2023-03-15T09:06:13.239Z,992.25
2023-03-15T09:07:13.234Z,992.29
2023-03-15T09:08:13.253Z,992.34
2023-03-15T09:09:13.296Z,992.33
2023-03-15T09:10:13.207Z,992.32
2023-03-15T09:11:13.254Z,992.28
2023-03-15T09:12:13.192Z,992.39
2023-03-15T09:13:13.183Z,992.34
2023-03-15T09:14:13.304Z,992.38
2023-03-15T09:15:13.185Z,992.45
2023-03-15T09:16:13.169Z,992.49
2023-03-15T09:17:13.201Z,992.48
2023-03-15T09:18:13.150Z,992.44
2023-03-15T09:19:13.152Z,992.47
2023-03-15T09:20:14.151Z,992.50
2023-03-15T09:21:13.119Z,992.50
2023-03-15T09:22:16.547Z,992.53
2023-03-15T09:23:15.801Z,992.49
2023-03-15T09:24:13.775Z,992.56
2023-03-15T09:25:13.113Z,992.62
2023-03-15T09:26:13.129Z,992.58
2023-03-15T09:27:13.082Z,992.57
2023-03-15T09:28:13.327Z,992.62
2023-03-15T09:29:13.623Z,992.67
2023-03-15T09:30:13.152Z,992.69
2023-03-15T09:31:13.171Z,992.74
2023-03-15T09:32:13.031Z,992.71
2023-03-15T09:33:13.082Z,992.64
2023-03-15T09:34:13.043Z,992.70
2023-03-15T09:35:13.769Z,992.75
2023-03-15T09:36:13.329Z,992.74
2023-03-15T09:37:12.987Z,992.71
2023-03-15T09:38:13.001Z,992.73
2023-03-15T09:39:13.009Z,992.72
2023-03-15T09:40:13.023Z,992.79
2023-03-15T09:41:12.968Z,992.76
2023-03-15T09:42:13.983Z,992.75
2023-03-15T09:43:12.952Z,992.78
2023-03-15T09:44:12.984Z,992.75
2023-03-15T09:45:12.944Z,992.78
2023-03-15T09:46:13.033Z,992.81
2023-03-15T09:47:12.931Z,992.86
2023-03-15T09:48:12.920Z,992.84
2023-03-15T09:49:12.901Z,992.83
2023-03-15T09:50:12.904Z,992.79
2023-03-15T09:51:12.899Z,992.81
2023-03-15T09:52:13.674Z,992.84
2023-03-15T09:53:12.930Z,992.84
2023-03-15T09:54:12.871Z,992.90
2023-03-15T09:55:12.884Z,992.81
2023-03-15T09:56:12.877Z,992.85
2023-03-15T09:57:12.830Z,992.89
2023-03-15T09:58:12.840Z,992.93
2023-03-15T09:59:12.839Z,992.83
2023-03-15T10:00:13.811Z,992.88
2023-03-15T10:01:12.941Z,992.88
2023-03-15T10:02:12.849Z,992.86
2023-03-15T10:03:13.751Z,992.91
2023-03-15T10:04:12.832Z,992.95
2023-03-15T10:05:12.795Z,992.93
2023-03-15T10:06:12.771Z,992.92
2023-03-15T10:07:13.311Z,992.94
2023-03-15T10:08:12.761Z,992.93
2023-03-15T10:09:12.761Z,992.92
2023-03-15T10:10:12.747Z,992.84
2023-03-15T10:11:12.756Z,992.82
2023-03-15T10:12:12.741Z,992.85
2023-03-15T10:13:12.722Z,992.77
2023-03-15T10:14:12.715Z,992.82
2023-03-15T10:15:12.696Z,992.80
2023-03-15T10:16:12.751Z,992.76
2023-03-15T10:17:12.691Z,992.72
2023-03-15T10:18:12.681Z,992.76
2023-03-15T10:19:12.660Z,992.78
2023-03-15T10:20:12.671Z,992.78
2023-03-15T10:21:12.872Z,992.80
2023-03-15T10:22:12.662Z,992.75
2023-03-15T10:23:12.640Z,992.77
2023-03-15T10:24:12.639Z,992.80
2023-03-15T10:25:12.626Z,992.73
2023-03-15T10:26:14.134Z,992.77
2023-03-15T10:27:12.626Z,992.71
2023-03-15T10:28:12.817Z,992.75
2023-03-15T10:29:12.601Z,992.75
2023-03-15T10:30:12.604Z,992.76
2023-03-15T10:31:18.249Z,992.76
2023-03-15T10:32:13.653Z,992.87
2023-03-15T10:33:12.569Z,992.87
2023-03-15T10:34:12.584Z,992.86
2023-03-15T10:35:12.565Z,992.90
2023-03-15T10:36:12.602Z,992.91
2023-03-15T10:37:12.512Z,992.89
2023-03-15T10:38:12.514Z,992.90
2023-03-15T10:39:12.710Z,992.92
2023-03-15T10:40:12.622Z,992.88
2023-03-15T10:41:15.244Z,992.93
2023-03-15T10:42:12.991Z,992.90
2023-03-15T10:43:12.510Z,992.89
2023-03-15T10:44:12.494Z,992.92
2023-03-15T10:45:12.493Z,992.95
2023-03-15T10:46:12.507Z,992.90
2023-03-15T10:47:22.471Z,992.93
2023-03-15T10:48:14.875Z,992.90
2023-03-15T10:49:12.472Z,992.93
2023-03-15T10:50:12.444Z,992.94
2023-03-15T10:51:12.636Z,992.93
2023-03-15T10:52:14.218Z,992.97
2023-03-15T10:53:12.399Z,992.91
2023-03-15T10:54:12.383Z,992.87
2023-03-15T10:55:12.374Z,992.89
2023-03-15T10:56:12.382Z,992.86
2023-03-15T10:57:12.386Z,992.80
2023-03-15T10:58:12.340Z,992.80
2023-03-15T10:59:13.220Z,992.87
2023-03-15T11:00:14.258Z,992.84
2023-03-15T11:01:12.393Z,992.82
2023-03-15T11:02:12.321Z,992.82
2023-03-15T11:03:12.355Z,992.80
2023-03-15T11:04:12.334Z,992.86
2023-03-15T11:05:12.285Z,992.84
2023-03-15T11:06:12.286Z,992.86
2023-03-15T11:07:12.270Z,992.85
2023-03-15T11:08:12.258Z,992.88
2023-03-15T11:09:12.248Z,992.84
2023-03-15T11:10:12.236Z,992.87
2023-03-15T11:11:12.261Z,992.82
2023-03-15T11:12:12.276Z,992.90
2023-03-15T11:13:13.244Z,992.87
2023-03-15T11:14:12.225Z,992.89
2023-03-15T11:15:12.222Z,992.88
2023-03-15T11:16:12.230Z,992.86
2023-03-15T11:17:12.194Z,992.85
2023-03-15T11:18:12.185Z,992.86
2023-03-15T11:19:12.247Z,992.83
2023-03-15T11:20:12.681Z,992.87
2023-03-15T11:21:12.149Z,992.84
2023-03-15T11:22:12.156Z,992.87
2023-03-15T11:23:12.227Z,992.89
2023-03-15T11:24:12.158Z,992.92
2023-03-15T11:25:12.203Z,992.88
2023-03-15T11:26:14.129Z,992.90
2023-03-15T11:27:14.142Z,992.96
2023-03-15T11:28:12.117Z,992.96
2023-03-15T11:29:12.099Z,992.94
2023-03-15T11:30:13.125Z,992.92
2023-03-15T11:31:12.108Z,992.95
2023-03-15T11:32:12.069Z,992.92
2023-03-15T11:33:12.070Z,992.96
2023-03-15T11:34:12.094Z,993.03
2023-03-15T11:35:12.061Z,992.98
2023-03-15T11:36:12.509Z,992.97
2023-03-15T11:37:13.284Z,992.96
2023-03-15T11:38:15.455Z,992.98
2023-03-15T11:39:13.052Z,992.97
2023-03-15T11:40:14.026Z,993.00
2023-03-15T11:41:13.861Z,993.03
2023-03-15T11:42:12.051Z,992.98
2023-03-15T11:43:12.009Z,993.00
2023-03-15T11:44:11.987Z,993.06
2023-03-15T11:45:12.736Z,993.04
2023-03-15T11:46:12.039Z,993.02
2023-03-15T11:47:12.115Z,993.04
2023-03-15T11:48:11.934Z,993.11
2023-03-15T11:49:11.939Z,993.06
2023-03-15T11:50:11.947Z,993.10
2023-03-15T11:51:11.944Z,993.06
2023-03-15T11:52:11.936Z,993.07
2023-03-15T11:53:13.280Z,993.08
2023-03-15T11:54:12.832Z,993.11
2023-03-15T11:55:11.933Z,993.08
2023-03-15T11:56:11.893Z,993.10
2023-03-15T11:57:11.875Z,993.09
2023-03-15T11:58:12.757Z,993.06
2023-03-15T11:59:11.937Z,993.11
2023-03-15T12:00:11.970Z,993.05
2023-03-15T12:01:12.877Z,993.06
2023-03-15T12:02:12.907Z,993.06
2023-03-15T12:03:11.946Z,993.12
2023-03-15T12:04:11.827Z,993.09
2023-03-15T12:05:17.948Z,993.11
2023-03-15T12:06:13.809Z,993.11
2023-03-15T12:07:11.802Z,993.10
2023-03-15T12:08:12.709Z,993.05
2023-03-15T12:09:11.808Z,993.12
2023-03-15T12:10:11.765Z,993.18
2023-03-15T12:11:11.765Z,993.14
2023-03-15T12:12:11.757Z,993.17
2023-03-15T12:13:11.735Z,993.20
2023-03-15T12:14:11.744Z,993.15
2023-03-15T12:15:11.795Z,993.14
2023-03-15T12:16:12.763Z,993.12
2023-03-15T12:17:12.256Z,993.29
2023-03-15T12:18:11.751Z,993.21
2023-03-15T12:19:11.689Z,993.18
2023-03-15T12:20:11.677Z,993.20
2023-03-15T12:21:11.690Z,993.22
2023-03-15T12:22:11.835Z,993.14
2023-03-15T12:23:12.703Z,993.19
2023-03-15T12:24:11.668Z,993.19
2023-03-15T12:25:11.679Z,993.24
2023-03-15T12:26:11.641Z,993.29
2023-03-15T12:28:18.480Z,993.36
2023-03-15T12:29:18.478Z,993.35
2023-03-15T12:30:18.466Z,993.33